sensor_id;sensor_type;location;lat;lon;timestamp;pressure;altitude;pressure_sealevel;temperature
76901;BMP280;65859;43.020;25.096;2023-03-16T00:02:10;98319.63;;;11.04
76901;BMP280;65859;43.020;25.096;2023-03-16T00:04:38;98321.34;;;10.96
76901;BMP280;65859;43.020;25.096;2023-03-16T00:07:07;98328.22;;;10.81
76901;BMP280;65859;43.020;25.096;2023-03-16T00:09:34;98321.72;;;10.79
76901;BMP280;65859;43.020;25.096;2023-03-16T00:12:02;98327.66;;;10.92
76901;BMP280;65859;43.020;25.096;2023-03-16T00:14:29;98329.31;;;10.80
76901;BMP280;65859;43.020;25.096;2023-03-16T00:16:55;98332.03;;;10.84
76901;BMP280;65859;43.020;25.096;2023-03-16T00:19:22;98335.06;;;10.82
76901;BMP280;65859;43.020;25.096;2023-03-16T00:21:52;98325.81;;;10.76
76901;BMP280;65859;43.020;25.096;2023-03-16T00:24:19;98342.19;;;10.78
76901;BMP280;65859;43.020;25.096;2023-03-16T00:26:46;98354.66;;;10.62
76901;BMP280;65859;43.020;25.096;2023-03-16T00:29:13;98353.28;;;10.68
76901;BMP280;65859;43.020;25.096;2023-03-16T00:31:40;98353.22;;;10.65
76901;BMP280;65859;43.020;25.096;2023-03-16T00:34:10;98359.53;;;10.76
76901;BMP280;65859;43.020;25.096;2023-03-16T00:36:38;98351.84;;;10.87
76901;BMP280;65859;43.020;25.096;2023-03-16T00:39:05;98350.97;;;10.82
76901;BMP280;65859;43.020;25.096;2023-03-16T00:41:32;98356.03;;;10.72
76901;BMP280;65859;43.020;25.096;2023-03-16T00:44:04;98351.75;;;10.83
76901;BMP280;65859;43.020;25.096;2023-03-16T00:46:30;98353.56;;;10.63
76901;BMP280;65859;43.020;25.096;2023-03-16T00:48:57;98360.97;;;10.58
76901;BMP280;65859;43.020;25.096;2023-03-16T00:51:23;98359.19;;;10.62
76901;BMP280;65859;43.020;25.096;2023-03-16T00:53:49;98359.97;;;10.62
76901;BMP280;65859;43.020;25.096;2023-03-16T00:56:16;98360.22;;;10.57
76901;BMP280;65859;43.020;25.096;2023-03-16T00:58:43;98367.69;;;10.67
76901;BMP280;65859;43.020;25.096;2023-03-16T01:01:16;98368.97;;;10.73
76901;BMP280;65859;43.020;25.096;2023-03-16T01:03:43;98371.50;;;10.70
76901;BMP280;65859;43.020;25.096;2023-03-16T01:06:15;98377.09;;;10.65
76901;BMP280;65859;43.020;25.096;2023-03-16T01:08:43;98380.78;;;10.60
76901;BMP280;65859;43.020;25.096;2023-03-16T01:11:15;98375.13;;;10.46
76901;BMP280;65859;43.020;25.096;2023-03-16T01:13:43;98369.34;;;10.28
76901;BMP280;65859;43.020;25.096;2023-03-16T01:16:09;98367.28;;;10.21
76901;BMP280;65859;43.020;25.096;2023-03-16T01:18:36;98369.94;;;10.21
76901;BMP280;65859;43.020;25.096;2023-03-16T01:21:04;98377.50;;;10.35
76901;BMP280;65859;43.020;25.096;2023-03-16T01:23:31;98379.25;;;10.15
76901;BMP280;65859;43.020;25.096;2023-03-16T01:25:58;98376.53;;;10.27
76901;BMP280;65859;43.020;25.096;2023-03-16T01:28:27;98382.13;;;10.10
76901;BMP280;65859;43.020;25.096;2023-03-16T01:30:57;98384.59;;;10.03
76901;BMP280;65859;43.020;25.096;2023-03-16T01:33:25;98386.19;;;9.92
76901;BMP280;65859;43.020;25.096;2023-03-16T01:36:00;98389.66;;;10.08
76901;BMP280;65859;43.020;25.096;2023-03-16T01:38:27;98391.13;;;10.06
76901;BMP280;65859;43.020;25.096;2023-03-16T01:40:55;98392.84;;;9.86
76901;BMP280;65859;43.020;25.096;2023-03-16T01:43:24;98390.63;;;10.16
76901;BMP280;65859;43.020;25.096;2023-03-16T01:49:01;98391.94;;;9.82
76901;BMP280;65859;43.020;25.096;2023-03-16T01:51:46;98393.19;;;10.00
76901;BMP280;65859;43.020;25.096;2023-03-16T01:54:25;98398.91;;;9.86
76901;BMP280;65859;43.020;25.096;2023-03-16T01:57:07;98408.13;;;9.92
76901;BMP280;65859;43.020;25.096;2023-03-16T01:59:39;98414.75;;;9.98
76901;BMP280;65859;43.020;25.096;2023-03-16T02:02:09;98410.47;;;9.94
76901;BMP280;65859;43.020;25.096;2023-03-16T02:07:19;98413.97;;;9.58
76901;BMP280;65859;43.020;25.096;2023-03-16T02:09:50;98424.31;;;9.75
76901;BMP280;65859;43.020;25.096;2023-03-16T02:12:22;98431.28;;;9.55
76901;BMP280;65859;43.020;25.096;2023-03-16T02:14:50;98429.09;;;9.57
76901;BMP280;65859;43.020;25.096;2023-03-16T02:17:20;98448.59;;;9.65
76901;BMP280;65859;43.020;25.096;2023-03-16T02:19:52;98443.44;;;9.68
76901;BMP280;65859;43.020;25.096;2023-03-16T02:22:21;98442.97;;;9.66
76901;BMP280;65859;43.020;25.096;2023-03-16T02:24:51;98446.94;;;9.72
76901;BMP280;65859;43.020;25.096;2023-03-16T02:27:42;98453.31;;;9.84
76901;BMP280;65859;43.020;25.096;2023-03-16T02:30:15;98452.69;;;9.62
76901;BMP280;65859;43.020;25.096;2023-03-16T02:32:42;98459.97;;;9.53
76901;BMP280;65859;43.020;25.096;2023-03-16T02:35:10;98460.66;;;9.50
76901;BMP280;65859;43.020;25.096;2023-03-16T02:37:38;98460.22;;;9.60
76901;BMP280;65859;43.020;25.096;2023-03-16T02:40:24;98462.63;;;9.41
76901;BMP280;65859;43.020;25.096;2023-03-16T02:45:46;98467.25;;;9.44
76901;BMP280;65859;43.020;25.096;2023-03-16T02:51:05;98456.13;;;9.14
76901;BMP280;65859;43.020;25.096;2023-03-16T02:53:32;98451.69;;;9.18
76901;BMP280;65859;43.020;25.096;2023-03-16T02:55:58;98458.00;;;9.13
76901;BMP280;65859;43.020;25.096;2023-03-16T02:58:24;98467.03;;;9.12
76901;BMP280;65859;43.020;25.096;2023-03-16T03:00:53;98467.81;;;9.13
76901;BMP280;65859;43.020;25.096;2023-03-16T03:03:20;98475.84;;;9.16
76901;BMP280;65859;43.020;25.096;2023-03-16T03:05:46;98471.75;;;9.07
76901;BMP280;65859;43.020;25.096;2023-03-16T03:08:13;98480.69;;;9.02
76901;BMP280;65859;43.020;25.096;2023-03-16T03:10:40;98485.53;;;9.00
76901;BMP280;65859;43.020;25.096;2023-03-16T03:13:07;98479.41;;;8.75
76901;BMP280;65859;43.020;25.096;2023-03-16T03:15:34;98491.41;;;8.73
76901;BMP280;65859;43.020;25.096;2023-03-16T03:18:01;98497.59;;;8.77
76901;BMP280;65859;43.020;25.096;2023-03-16T03:20:27;98499.88;;;8.78
76901;BMP280;65859;43.020;25.096;2023-03-16T03:22:54;98512.06;;;8.58
76901;BMP280;65859;43.020;25.096;2023-03-16T03:25:21;98514.22;;;8.77
76901;BMP280;65859;43.020;25.096;2023-03-16T03:27:48;98517.22;;;8.76
76901;BMP280;65859;43.020;25.096;2023-03-16T03:30:18;98524.56;;;8.70
76901;BMP280;65859;43.020;25.096;2023-03-16T03:32:45;98516.56;;;8.58
76901;BMP280;65859;43.020;25.096;2023-03-16T03:35:13;98523.94;;;8.52
76901;BMP280;65859;43.020;25.096;2023-03-16T03:37:40;98523.00;;;8.36
76901;BMP280;65859;43.020;25.096;2023-03-16T03:40:09;98522.72;;;8.29
76901;BMP280;65859;43.020;25.096;2023-03-16T03:42:37;98520.75;;;8.38
76901;BMP280;65859;43.020;25.096;2023-03-16T03:45:05;98511.28;;;8.16
76901;BMP280;65859;43.020;25.096;2023-03-16T03:47:33;98508.72;;;8.28
76901;BMP280;65859;43.020;25.096;2023-03-16T03:49:59;98514.78;;;8.29
76901;BMP280;65859;43.020;25.096;2023-03-16T03:52:26;98519.88;;;8.34
76901;BMP280;65859;43.020;25.096;2023-03-16T03:54:53;98524.84;;;8.56
76901;BMP280;65859;43.020;25.096;2023-03-16T03:57:19;98529.75;;;8.67
76901;BMP280;65859;43.020;25.096;2023-03-16T03:59:46;98535.22;;;8.61
76901;BMP280;65859;43.020;25.096;2023-03-16T04:02:12;98541.81;;;8.68
76901;BMP280;65859;43.020;25.096;2023-03-16T04:04:40;98533.91;;;8.68
76901;BMP280;65859;43.020;25.096;2023-03-16T04:07:07;98549.34;;;8.66
76901;BMP280;65859;43.020;25.096;2023-03-16T04:09:33;98553.72;;;8.61
76901;BMP280;65859;43.020;25.096;2023-03-16T04:12:04;98557.47;;;8.40
76901;BMP280;65859;43.020;25.096;2023-03-16T04:14:31;98557.28;;;8.45
76901;BMP280;65859;43.020;25.096;2023-03-16T04:16:57;98560.09;;;8.60
76901;BMP280;65859;43.020;25.096;2023-03-16T04:19:24;98573.31;;;8.60
76901;BMP280;65859;43.020;25.096;2023-03-16T04:21:51;98567.63;;;8.29
76901;BMP280;65859;43.020;25.096;2023-03-16T04:24:18;98567.44;;;8.04
76901;BMP280;65859;43.020;25.096;2023-03-16T04:26:45;98576.53;;;8.24
76901;BMP280;65859;43.020;25.096;2023-03-16T04:29:12;98583.41;;;8.37
76901;BMP280;65859;43.020;25.096;2023-03-16T04:31:40;98582.59;;;8.25
76901;BMP280;65859;43.020;25.096;2023-03-16T04:34:08;98584.19;;;8.38
76901;BMP280;65859;43.020;25.096;2023-03-16T04:36:37;98594.16;;;8.11
76901;BMP280;65859;43.020;25.096;2023-03-16T04:39:04;98607.97;;;8.17
76901;BMP280;65859;43.020;25.096;2023-03-16T04:41:32;98610.06;;;8.03
76901;BMP280;65859;43.020;25.096;2023-03-16T04:44:00;98618.41;;;8.14
76901;BMP280;65859;43.020;25.096;2023-03-16T04:46:27;98620.47;;;7.99
76901;BMP280;65859;43.020;25.096;2023-03-16T04:48:54;98619.84;;;8.02
76901;BMP280;65859;43.020;25.096;2023-03-16T04:51:24;98621.88;;;7.97
76901;BMP280;65859;43.020;25.096;2023-03-16T04:53:50;98629.84;;;7.88
76901;BMP280;65859;43.020;25.096;2023-03-16T04:56:17;98631.41;;;7.72
76901;BMP280;65859;43.020;25.096;2023-03-16T04:58:47;98635.41;;;7.87
76901;BMP280;65859;43.020;25.096;2023-03-16T05:01:15;98631.88;;;7.91
76901;BMP280;65859;43.020;25.096;2023-03-16T05:03:43;98637.94;;;7.74
76901;BMP280;65859;43.020;25.096;2023-03-16T05:06:10;98630.47;;;7.85
76901;BMP280;65859;43.020;25.096;2023-03-16T05:08:37;98644.31;;;7.65
76901;BMP280;65859;43.020;25.096;2023-03-16T05:11:03;98646.81;;;7.61
76901;BMP280;65859;43.020;25.096;2023-03-16T05:13:30;98656.09;;;7.76
76901;BMP280;65859;43.020;25.096;2023-03-16T05:15:56;98658.84;;;7.97
76901;BMP280;65859;43.020;25.096;2023-03-16T05:18:23;98662.34;;;7.63
76901;BMP280;65859;43.020;25.096;2023-03-16T05:20:54;98663.56;;;7.74
76901;BMP280;65859;43.020;25.096;2023-03-16T05:23:23;98679.59;;;7.60
76901;BMP280;65859;43.020;25.096;2023-03-16T05:25:50;98673.41;;;7.56
76901;BMP280;65859;43.020;25.096;2023-03-16T05:28:17;98687.97;;;7.62
76901;BMP280;65859;43.020;25.096;2023-03-16T05:30:43;98691.06;;;7.73
76901;BMP280;65859;43.020;25.096;2023-03-16T05:33:12;98695.09;;;7.79
76901;BMP280;65859;43.020;25.096;2023-03-16T05:35:40;98697.53;;;8.01
76901;BMP280;65859;43.020;25.096;2023-03-16T05:38:06;98702.69;;;7.89
76901;BMP280;65859;43.020;25.096;2023-03-16T05:40:35;98708.34;;;7.70
76901;BMP280;65859;43.020;25.096;2023-03-16T05:43:02;98702.88;;;7.49
76901;BMP280;65859;43.020;25.096;2023-03-16T05:45:29;98717.03;;;7.71
76901;BMP280;65859;43.020;25.096;2023-03-16T05:47:56;98720.88;;;7.65
76901;BMP280;65859;43.020;25.096;2023-03-16T05:50:23;98725.72;;;7.80
76901;BMP280;65859;43.020;25.096;2023-03-16T05:52:49;98726.00;;;7.78
76901;BMP280;65859;43.020;25.096;2023-03-16T05:55:17;98726.63;;;7.49
76901;BMP280;65859;43.020;25.096;2023-03-16T05:57:44;98737.03;;;7.37
76901;BMP280;65859;43.020;25.096;2023-03-16T06:00:12;98731.78;;;7.28
76901;BMP280;65859;43.020;25.096;2023-03-16T06:02:46;98735.97;;;7.29
76901;BMP280;65859;43.020;25.096;2023-03-16T06:05:14;98737.19;;;7.32
76901;BMP280;65859;43.020;25.096;2023-03-16T06:07:42;98751.47;;;7.31
76901;BMP280;65859;43.020;25.096;2023-03-16T06:10:09;98754.59;;;7.33
76901;BMP280;65859;43.020;25.096;2023-03-16T06:12:36;98756.31;;;7.29
76901;BMP280;65859;43.020;25.096;2023-03-16T06:15:04;98758.28;;;7.15
76901;BMP280;65859;43.020;25.096;2023-03-16T06:17:35;98760.00;;;7.19
76901;BMP280;65859;43.020;25.096;2023-03-16T06:20:01;98761.38;;;6.99
76901;BMP280;65859;43.020;25.096;2023-03-16T06:22:30;98766.38;;;7.18
76901;BMP280;65859;43.020;25.096;2023-03-16T06:24:56;98765.59;;;7.18
76901;BMP280;65859;43.020;25.096;2023-03-16T06:27:22;98768.81;;;7.06
76901;BMP280;65859;43.020;25.096;2023-03-16T06:29:51;98765.72;;;6.95
76901;BMP280;65859;43.020;25.096;2023-03-16T06:32:18;98773.63;;;7.13
76901;BMP280;65859;43.020;25.096;2023-03-16T06:34:45;98778.78;;;7.26
76901;BMP280;65859;43.020;25.096;2023-03-16T06:37:11;98783.75;;;7.11
76901;BMP280;65859;43.020;25.096;2023-03-16T06:39:39;98788.00;;;6.89
76901;BMP280;65859;43.020;25.096;2023-03-16T06:42:05;98789.03;;;7.28
76901;BMP280;65859;43.020;25.096;2023-03-16T06:44:32;98789.34;;;7.18
76901;BMP280;65859;43.020;25.096;2023-03-16T06:46:58;98792.50;;;6.89
76901;BMP280;65859;43.020;25.096;2023-03-16T06:49:25;98804.00;;;7.01
76901;BMP280;65859;43.020;25.096;2023-03-16T06:51:51;98808.38;;;6.97
76901;BMP280;65859;43.020;25.096;2023-03-16T06:54:18;98805.09;;;6.92
76901;BMP280;65859;43.020;25.096;2023-03-16T06:56:44;98806.25;;;6.77
76901;BMP280;65859;43.020;25.096;2023-03-16T06:59:10;98808.47;;;6.84
76901;BMP280;65859;43.020;25.096;2023-03-16T07:01:37;98811.59;;;6.94
76901;BMP280;65859;43.020;25.096;2023-03-16T07:04:03;98814.53;;;6.93
76901;BMP280;65859;43.020;25.096;2023-03-16T07:06:30;98821.28;;;7.08
76901;BMP280;65859;43.020;25.096;2023-03-16T07:08:56;98820.50;;;7.07
76901;BMP280;65859;43.020;25.096;2023-03-16T07:11:24;98821.09;;;7.13
76901;BMP280;65859;43.020;25.096;2023-03-16T07:13:50;98829.47;;;7.06
76901;BMP280;65859;43.020;25.096;2023-03-16T07:16:16;98824.59;;;6.82
76901;BMP280;65859;43.020;25.096;2023-03-16T07:18:43;98835.47;;;6.89
76901;BMP280;65859;43.020;25.096;2023-03-16T07:21:10;98831.56;;;7.18
76901;BMP280;65859;43.020;25.096;2023-03-16T07:23:36;98835.28;;;7.25
76901;BMP280;65859;43.020;25.096;2023-03-16T07:26:03;98843.41;;;7.46
76901;BMP280;65859;43.020;25.096;2023-03-16T07:28:29;98852.28;;;7.68
76901;BMP280;65859;43.020;25.096;2023-03-16T07:30:57;98846.25;;;7.84
76901;BMP280;65859;43.020;25.096;2023-03-16T07:33:26;98852.13;;;7.64
76901;BMP280;65859;43.020;25.096;2023-03-16T07:35:52;98852.59;;;7.66
76901;BMP280;65859;43.020;25.096;2023-03-16T07:38:19;98861.91;;;7.72
76901;BMP280;65859;43.020;25.096;2023-03-16T07:40:46;98860.66;;;7.52
76901;BMP280;65859;43.020;25.096;2023-03-16T07:43:14;98866.72;;;7.13
76901;BMP280;65859;43.020;25.096;2023-03-16T07:45:40;98865.91;;;6.95
76901;BMP280;65859;43.020;25.096;2023-03-16T07:48:07;98876.19;;;7.05
76901;BMP280;65859;43.020;25.096;2023-03-16T07:50:34;98876.63;;;6.68
76901;BMP280;65859;43.020;25.096;2023-03-16T07:53:00;98875.88;;;6.76
76901;BMP280;65859;43.020;25.096;2023-03-16T07:55:27;98884.41;;;6.73
76901;BMP280;65859;43.020;25.096;2023-03-16T07:57:53;98887.88;;;6.91
76901;BMP280;65859;43.020;25.096;2023-03-16T08:00:20;98882.63;;;6.91
76901;BMP280;65859;43.020;25.096;2023-03-16T08:02:49;98884.63;;;6.85
76901;BMP280;65859;43.020;25.096;2023-03-16T08:05:16;98889.38;;;6.52
76901;BMP280;65859;43.020;25.096;2023-03-16T08:07:42;98891.06;;;6.70
76901;BMP280;65859;43.020;25.096;2023-03-16T08:10:09;98893.16;;;6.60
76901;BMP280;65859;43.020;25.096;2023-03-16T08:12:37;98883.19;;;6.79
76901;BMP280;65859;43.020;25.096;2023-03-16T08:15:06;98901.03;;;6.82
76901;BMP280;65859;43.020;25.096;2023-03-16T08:17:32;98908.25;;;6.68
76901;BMP280;65859;43.020;25.096;2023-03-16T08:19:59;98907.81;;;6.74
76901;BMP280;65859;43.020;25.096;2023-03-16T08:22:25;98914.88;;;6.43
76901;BMP280;65859;43.020;25.096;2023-03-16T08:24:52;98911.50;;;6.06
76901;BMP280;65859;43.020;25.096;2023-03-16T08:27:18;98921.41;;;6.09
76901;BMP280;65859;43.020;25.096;2023-03-16T08:29:45;98921.28;;;5.78
76901;BMP280;65859;43.020;25.096;2023-03-16T08:32:12;98926.94;;;5.85
76901;BMP280;65859;43.020;25.096;2023-03-16T08:34:38;98934.75;;;5.90
76901;BMP280;65859;43.020;25.096;2023-03-16T08:37:05;98936.41;;;5.86
76901;BMP280;65859;43.020;25.096;2023-03-16T08:39:31;98934.44;;;6.28
76901;BMP280;65859;43.020;25.096;2023-03-16T08:41:58;98941.97;;;5.71
76901;BMP280;65859;43.020;25.096;2023-03-16T08:44:24;98937.13;;;6.14
76901;BMP280;65859;43.020;25.096;2023-03-16T08:46:52;98940.25;;;6.16
76901;BMP280;65859;43.020;25.096;2023-03-16T08:49:19;98940.44;;;5.92
76901;BMP280;65859;43.020;25.096;2023-03-16T08:51:46;98947.19;;;5.98
76901;BMP280;65859;43.020;25.096;2023-03-16T08:54:12;98946.78;;;6.19
76901;BMP280;65859;43.020;25.096;2023-03-16T08:56:38;98949.69;;;6.17
76901;BMP280;65859;43.020;25.096;2023-03-16T08:59:05;98953.81;;;6.10
76901;BMP280;65859;43.020;25.096;2023-03-16T09:01:31;98958.88;;;6.20
76901;BMP280;65859;43.020;25.096;2023-03-16T09:03:59;98958.44;;;6.04
76901;BMP280;65859;43.020;25.096;2023-03-16T09:06:26;98955.47;;;6.19
76901;BMP280;65859;43.020;25.096;2023-03-16T09:08:52;98953.88;;;6.32
76901;BMP280;65859;43.020;25.096;2023-03-16T09:11:21;98960.56;;;6.38
76901;BMP280;65859;43.020;25.096;2023-03-16T09:13:48;98960.63;;;6.11
76901;BMP280;65859;43.020;25.096;2023-03-16T09:16:15;98961.53;;;6.42
76901;BMP280;65859;43.020;25.096;2023-03-16T09:18:43;98966.03;;;6.42
76901;BMP280;65859;43.020;25.096;2023-03-16T09:21:11;98963.94;;;6.52
76901;BMP280;65859;43.020;25.096;2023-03-16T09:23:41;98965.59;;;6.85
76901;BMP280;65859;43.020;25.096;2023-03-16T09:26:11;98976.81;;;6.76
76901;BMP280;65859;43.020;25.096;2023-03-16T09:28:39;98973.78;;;6.61
76901;BMP280;65859;43.020;25.096;2023-03-16T09:31:08;98980.03;;;6.51
76901;BMP280;65859;43.020;25.096;2023-03-16T09:33:35;98974.97;;;6.54
76901;BMP280;65859;43.020;25.096;2023-03-16T09:36:02;98984.69;;;6.68
76901;BMP280;65859;43.020;25.096;2023-03-16T09:38:29;98984.19;;;6.66
76901;BMP280;65859;43.020;25.096;2023-03-16T09:41:04;98987.81;;;6.70
76901;BMP280;65859;43.020;25.096;2023-03-16T09:46:24;98995.94;;;6.73
76901;BMP280;65859;43.020;25.096;2023-03-16T09:48:55;99003.31;;;6.21
76901;BMP280;65859;43.020;25.096;2023-03-16T09:51:35;98994.56;;;6.26
76901;BMP280;65859;43.020;25.096;2023-03-16T09:54:11;98999.53;;;6.27
76901;BMP280;65859;43.020;25.096;2023-03-16T09:56:41;98997.75;;;6.73
76901;BMP280;65859;43.020;25.096;2023-03-16T09:59:13;99000.09;;;6.74
76901;BMP280;65859;43.020;25.096;2023-03-16T10:07:24;99006.97;;;6.84
76901;BMP280;65859;43.020;25.096;2023-03-16T10:09:58;99008.31;;;6.95
76901;BMP280;65859;43.020;25.096;2023-03-16T10:12:29;99007.25;;;6.96
76901;BMP280;65859;43.020;25.096;2023-03-16T10:15:07;99005.06;;;6.76
76901;BMP280;65859;43.020;25.096;2023-03-16T10:18:00;99014.03;;;6.52
76901;BMP280;65859;43.020;25.096;2023-03-16T10:20:28;99006.13;;;6.52
76901;BMP280;65859;43.020;25.096;2023-03-16T10:22:58;99011.84;;;6.54
76901;BMP280;65859;43.020;25.096;2023-03-16T10:25:42;99007.69;;;6.40
76901;BMP280;65859;43.020;25.096;2023-03-16T10:28:23;99018.22;;;6.53
76901;BMP280;65859;43.020;25.096;2023-03-16T10:30:53;99016.00;;;6.69
76901;BMP280;65859;43.020;25.096;2023-03-16T10:33:24;99018.91;;;6.59
76901;BMP280;65859;43.020;25.096;2023-03-16T10:38:49;99030.75;;;6.48
76901;BMP280;65859;43.020;25.096;2023-03-16T10:43:57;99025.41;;;6.62
76901;BMP280;65859;43.020;25.096;2023-03-16T10:46:27;99023.88;;;6.61
76901;BMP280;65859;43.020;25.096;2023-03-16T10:48:58;99024.84;;;7.10
76901;BMP280;65859;43.020;25.096;2023-03-16T10:51:27;99016.81;;;6.70
76901;BMP280;65859;43.020;25.096;2023-03-16T10:54:21;99021.06;;;6.43
76901;BMP280;65859;43.020;25.096;2023-03-16T10:56:44;99021.75;;;6.85
76901;BMP280;65859;43.020;25.096;2023-03-16T10:59:34;99013.78;;;6.40
76901;BMP280;65859;43.020;25.096;2023-03-16T11:02:23;99021.25;;;6.61
76901;BMP280;65859;43.020;25.096;2023-03-16T11:04:50;99016.44;;;6.63
76901;BMP280;65859;43.020;25.096;2023-03-16T11:07:21;99017.03;;;6.60
76901;BMP280;65859;43.020;25.096;2023-03-16T11:09:51;99020.78;;;6.59
76901;BMP280;65859;43.020;25.096;2023-03-16T11:12:26;99012.75;;;6.86
76901;BMP280;65859;43.020;25.096;2023-03-16T11:15:08;99018.00;;;6.64
76901;BMP280;65859;43.020;25.096;2023-03-16T11:17:44;99016.88;;;6.78
76901;BMP280;65859;43.020;25.096;2023-03-16T11:20:17;99019.69;;;6.60
76901;BMP280;65859;43.020;25.096;2023-03-16T11:22:47;99012.38;;;6.43
76901;BMP280;65859;43.020;25.096;2023-03-16T11:25:27;99023.91;;;6.47
76901;BMP280;65859;43.020;25.096;2023-03-16T11:28:18;99019.09;;;6.49
76901;BMP280;65859;43.020;25.096;2023-03-16T11:31:07;99021.38;;;6.42
76901;BMP280;65859;43.020;25.096;2023-03-16T11:33:38;99012.22;;;6.62
76901;BMP280;65859;43.020;25.096;2023-03-16T11:39:01;99014.28;;;6.65
76901;BMP280;65859;43.020;25.096;2023-03-16T11:41:39;99017.88;;;6.33
76901;BMP280;65859;43.020;25.096;2023-03-16T11:53:02;99024.56;;;6.52
76901;BMP280;65859;43.020;25.096;2023-03-16T12:11:27;99048.88;;;6.49
76901;BMP280;65859;43.020;25.096;2023-03-16T12:14:07;99052.41;;;6.31
76901;BMP280;65859;43.020;25.096;2023-03-16T12:24:55;99051.50;;;6.49
76901;BMP280;65859;43.020;25.096;2023-03-16T12:27:31;99051.84;;;6.48
76901;BMP280;65859;43.020;25.096;2023-03-16T12:30:38;99049.94;;;6.48
76901;BMP280;65859;43.020;25.096;2023-03-16T12:39:06;99067.28;;;6.77
76901;BMP280;65859;43.020;25.096;2023-03-16T12:42:08;99072.44;;;6.82
76901;BMP280;65859;43.020;25.096;2023-03-16T12:45:00;99066.53;;;6.63
76901;BMP280;65859;43.020;25.096;2023-03-16T12:49:54;99072.25;;;6.65
76901;BMP280;65859;43.020;25.096;2023-03-16T12:52:21;99083.03;;;6.54
76901;BMP280;65859;43.020;25.096;2023-03-16T12:55:13;99077.16;;;6.58
76901;BMP280;65859;43.020;25.096;2023-03-16T12:57:41;99080.63;;;6.44
76901;BMP280;65859;43.020;25.096;2023-03-16T13:00:08;99081.38;;;6.59
76901;BMP280;65859;43.020;25.096;2023-03-16T13:02:37;99073.88;;;6.52
76901;BMP280;65859;43.020;25.096;2023-03-16T13:05:08;99080.88;;;6.70
76901;BMP280;65859;43.020;25.096;2023-03-16T13:07:35;99075.97;;;6.64
76901;BMP280;65859;43.020;25.096;2023-03-16T13:10:08;99083.00;;;6.68
76901;BMP280;65859;43.020;25.096;2023-03-16T13:12:37;99082.59;;;6.75
76901;BMP280;65859;43.020;25.096;2023-03-16T13:20:56;99092.41;;;6.61
76901;BMP280;65859;43.020;25.096;2023-03-16T13:23:25;99095.78;;;6.61
76901;BMP280;65859;43.020;25.096;2023-03-16T13:28:38;99098.63;;;6.65
76901;BMP280;65859;43.020;25.096;2023-03-16T13:31:20;99098.34;;;6.66
76901;BMP280;65859;43.020;25.096;2023-03-16T13:33:48;99098.63;;;6.65
76901;BMP280;65859;43.020;25.096;2023-03-16T13:36:16;99108.97;;;6.61
76901;BMP280;65859;43.020;25.096;2023-03-16T13:38:43;99114.16;;;6.52
76901;BMP280;65859;43.020;25.096;2023-03-16T13:41:20;99106.25;;;6.39
76901;BMP280;65859;43.020;25.096;2023-03-16T13:43:46;99106.19;;;6.44
76901;BMP280;65859;43.020;25.096;2023-03-16T13:46:17;99113.91;;;6.40
76901;BMP280;65859;43.020;25.096;2023-03-16T13:48:45;99111.53;;;6.52
76901;BMP280;65859;43.020;25.096;2023-03-16T13:51:17;99112.53;;;6.43
76901;BMP280;65859;43.020;25.096;2023-03-16T13:53:46;99110.53;;;6.62
76901;BMP280;65859;43.020;25.096;2023-03-16T13:56:33;99112.38;;;6.62
76901;BMP280;65859;43.020;25.096;2023-03-16T13:59:01;99125.41;;;6.44
76901;BMP280;65859;43.020;25.096;2023-03-16T14:01:30;99116.81;;;6.52
76901;BMP280;65859;43.020;25.096;2023-03-16T14:04:00;99128.31;;;6.43
76901;BMP280;65859;43.020;25.096;2023-03-16T14:06:34;99135.25;;;6.52
76901;BMP280;65859;43.020;25.096;2023-03-16T14:09:03;99134.38;;;6.43
76901;BMP280;65859;43.020;25.096;2023-03-16T14:11:30;99135.84;;;6.49
76901;BMP280;65859;43.020;25.096;2023-03-16T14:13:58;99138.28;;;6.46
76901;BMP280;65859;43.020;25.096;2023-03-16T14:16:27;99138.09;;;6.42
76901;BMP280;65859;43.020;25.096;2023-03-16T14:19:07;99146.56;;;6.53
76901;BMP280;65859;43.020;25.096;2023-03-16T14:21:43;99145.72;;;6.44
76901;BMP280;65859;43.020;25.096;2023-03-16T14:24:32;99144.44;;;6.55
76901;BMP280;65859;43.020;25.096;2023-03-16T14:30:23;99151.28;;;6.70
76901;BMP280;65859;43.020;25.096;2023-03-16T14:33:02;99156.63;;;6.51
76901;BMP280;65859;43.020;25.096;2023-03-16T14:35:40;99152.31;;;6.69
76901;BMP280;65859;43.020;25.096;2023-03-16T14:38:43;99147.84;;;6.42
76901;BMP280;65859;43.020;25.096;2023-03-16T14:41:28;99151.34;;;6.37
76901;BMP280;65859;43.020;25.096;2023-03-16T14:43:58;99161.41;;;6.63
76901;BMP280;65859;43.020;25.096;2023-03-16T14:46:38;99163.06;;;6.31
76901;BMP280;65859;43.020;25.096;2023-03-16T14:49:13;99168.44;;;6.40
76901;BMP280;65859;43.020;25.096;2023-03-16T14:51:44;99174.50;;;6.40
76901;BMP280;65859;43.020;25.096;2023-03-16T14:54:13;99173.00;;;6.34
76901;BMP280;65859;43.020;25.096;2023-03-16T14:56:41;99176.75;;;6.33
76901;BMP280;65859;43.020;25.096;2023-03-16T14:59:09;99185.31;;;6.39
76901;BMP280;65859;43.020;25.096;2023-03-16T15:01:37;99184.94;;;6.32
76901;BMP280;65859;43.020;25.096;2023-03-16T15:04:06;99192.84;;;6.45
76901;BMP280;65859;43.020;25.096;2023-03-16T15:06:33;99192.84;;;6.45
76901;BMP280;65859;43.020;25.096;2023-03-16T15:09:00;99201.34;;;6.42
76901;BMP280;65859;43.020;25.096;2023-03-16T15:11:28;99197.84;;;6.33
76901;BMP280;65859;43.020;25.096;2023-03-16T15:13:57;99196.72;;;6.34
76901;BMP280;65859;43.020;25.096;2023-03-16T15:16:39;99204.25;;;6.27
76901;BMP280;65859;43.020;25.096;2023-03-16T15:19:07;99206.09;;;6.26
76901;BMP280;65859;43.020;25.096;2023-03-16T15:21:34;99209.25;;;6.42
76901;BMP280;65859;43.020;25.096;2023-03-16T15:24:01;99210.38;;;6.36
76901;BMP280;65859;43.020;25.096;2023-03-16T15:26:29;99215.84;;;6.40
76901;BMP280;65859;43.020;25.096;2023-03-16T15:28:56;99220.00;;;6.46
76901;BMP280;65859;43.020;25.096;2023-03-16T15:31:23;99222.63;;;6.46
76901;BMP280;65859;43.020;25.096;2023-03-16T15:33:51;99218.53;;;6.21
76901;BMP280;65859;43.020;25.096;2023-03-16T15:36:19;99220.41;;;6.20
76901;BMP280;65859;43.020;25.096;2023-03-16T15:38:51;99226.44;;;6.21
76901;BMP280;65859;43.020;25.096;2023-03-16T15:41:18;99232.94;;;6.28
76901;BMP280;65859;43.020;25.096;2023-03-16T15:43:45;99237.41;;;6.28